Tiempo atmosférico en la estación meteorológica de Guadalajara, Guadalajara (721 m.)



Fecha
DESCASC
Temp. máxima en grados centígrados (hora)
DESCASC
Temp. mínima en grados centígrados (hora)
DESCASC
Temp. media en grados centígrados
DESCASC
Racha de viento máxima en m/sg (hora)
DESCASC
Velocidad máxima media en intervalos de 10 minutos(hora)
DESCASC
Precipitaciones diarias en mm
DESCASC
Precipitaciones de 00:00 a 06:00 en mm
DESCASC
Precipitaciones de 06:00 a 12:00 en mm
DESCASC
Precipitaciones de 12:00 a 18:00 en mm
DESCASC
Precipitaciones de 18:00 a 24:00 en mm
DESCASC

Gráficas

Temp. máximas Temp. mínimas Temp. medias Precipitaciones Rachas de viento máximas Velocidades máximas media en intervalos de 10 minutos

Datos horarios

Fecha y hora oficial Temperatura (ºC) Velocidad del viento (km/h) Dirección del viento Racha (km/h) Dirección de racha Precipitación (mm) Presión (hPa) Tendencia (hPa) Humedad (%)
2020-07-11 23:00:00 28.3 21 Sur 35 Sudeste 0 932.3 0.8 37
2020-07-11 22:00:00 30.1 15 Sudeste 25 Sur 0 931.9 0.2 30
2020-07-11 21:00:00 32.3 14 Sudeste 28 Sudeste 0 931.5 -0.5 27
2020-07-11 20:00:00 34 15 Sudeste 31 Sudeste 0 931.5 -0.9 25
2020-07-11 19:00:00 35.1 14 Sur 30 Sur 0 931.7 -1 23
2020-07-11 18:00:00 35.7 7 Sur 28 Sur 0 932 -1.1 20
2020-07-11 17:00:00 34.6 11 Sur 23 Sur 0 932.4 -1.3 20
2020-07-11 16:00:00 33.6 9 Sur 25 Sudoeste 0 932.7 -1.3 22
2020-07-11 15:00:00 33.1 12 Sur 35 Sur 0 933.1 -1.1 23
2020-07-11 14:00:00 33.2 13 Sudeste 26 Sudeste 0 933.7 -0.6 24
2020-07-11 13:00:00 31.9 8 Sur 17 Oeste 0 934 -0.6 27
2020-07-11 12:00:00 29.9 6 Sur 15 Nordeste 0 934.2 -0.2 34
2020-07-11 11:00:00 27 8 Norte 14 Norte 0 934.3 -- 46
2020-07-11 10:00:00 24 6 Norte 11 Norte 0 934.6 -- 58
2020-07-11 09:00:00 21.7 5 Norte 13 Nordeste 0 934.4 -- 64
2020-07-11 08:00:00 19.9 9 Nordeste 15 Nordeste 0 934.2 -- 68
2020-07-11 07:00:00 18.9 10 Nordeste 14 Nordeste 0 933.9 -- 72
2020-07-11 06:00:00 19.3 9 Nordeste 15 Este 0 933.7 -- 71
2020-07-11 05:00:00 19.5 12 Este 18 Este 0 933.6 -- 66
2020-07-11 04:00:00 20.8 7 Nordeste 11 Este 0 933.3 -- 59
2020-07-11 03:00:00 22.4 4 Norte 9 Norte 0 933.2 -- 55
2020-07-11 02:00:00 22.9 3 Nordeste 13 Nordeste 0 933 1.1 53
2020-07-11 01:00:00 24.5 8 Nordeste 32 Este 0 932.9 -- 48
2020-07-11 00:00:00 25.3 22 Este 37 Este 0 932.2 -- 44
2020-07-10 23:00:00 25.9 14 Este 36 Este 0 931.9 -- 38
2020-07-10 22:00:00 27.9 0 Calma 6 Sur 0 931.2 -- 35
2020-07-10 21:00:00 30.1 3 Nordeste 11 Nordeste 0 931 -- 27
2020-07-10 20:00:00 31.5 5 Noroeste 15 Este 0 931 -- 26
2020-07-10 19:00:00 31.1 6 Nordeste 14 Nordeste 0 930.9 -- 28
2020-07-10 18:00:00 31.1 5 Norte 18 Sur 0 931.1 -- 27
2020-07-10 17:00:00 31.3 9 Sur 21 Sur 0 931.4 -- 28
2020-07-10 16:00:00 31.5 7 Sudoeste 21 Sudoeste 0 931.6 -- 27
2020-07-10 15:00:00 32.2 13 Sur 23 Sur 0 932.1 -- 26
2020-07-10 14:00:00 30.4 4 Sudeste 17 Noroeste 0 932.7 -0.7 33
2020-07-10 13:00:00 29.4 5 Sur 16 Nordeste 0 932.8 -- 32
2020-07-10 12:00:00 27.8 5 Sudeste 12 Sudeste 0 933.3 -- 37
2020-07-10 11:00:00 24.5 5 Norte 10 Noroeste 0 933.4 -0.2 51
2020-07-10 10:00:00 21.4 4 Nordeste 10 Norte 0 933.7 -- 62
2020-07-10 09:00:00 19.2 5 Nordeste 8 Norte 0 933.5 -- 70
2020-07-10 08:00:00 17.1 2 Norte 6 Este 0 933.6 -- 79
2020-07-10 07:00:00 16.4 5 Este 9 Noroeste 0 933.5 -- 80
2020-07-10 06:00:00 17.1 4 Nordeste 7 Este 0 933.4 -- 77
2020-07-10 05:00:00 16.8 6 Este 9 Este 0 933.4 -- 77
2020-07-10 04:00:00 17.8 4 Noroeste 14 Nordeste 0 933.4 -- 72
2020-07-10 03:00:00 18.2 5 Sudoeste 16 Este 0 933.9 -- 68
2020-07-10 02:00:00 17.8 5 Este 10 Este 0 934.3 -- 70
2020-07-10 01:00:00 18.2 4 Nordeste 13 Nordeste 0 934.5 -- 70
2020-07-10 00:00:00 18.3 6 Nordeste 17 Nordeste 0 934.7 -- 75
2020-07-09 23:00:00 19.2 4 Norte 9 Norte 0 934.8 -- 72
2020-07-09 22:00:00 19.4 5 Oeste 44 Sudeste 0 934.7 -- 71
2020-07-09 21:00:00 19.5 28 Sudeste 51 Sudeste 0.2 934.2 -- 69
2020-07-09 20:00:00 21.6 18 Este 32 Norte 3.2 934.9 -- 67
2020-07-09 19:00:00 25.1 13 Nordeste 35 Nordeste 0 933.7 -- 43
2020-07-09 18:00:00 25.9 8 Nordeste 26 Sudeste 0 933.1 -- 42
2020-07-09 17:00:00 26 15 Sudeste 42 Este 0 933.3 -- 35
2020-07-09 16:00:00 24.6 33 Este 50 Sudeste 0 933.1 -- 41
2020-07-09 15:00:00 31.8 17 Sur 26 Sur 0 933.1 -- 24
2020-07-09 14:00:00 32.1 5 Sudoeste 31 Este 0 933.5 -- 27
2020-07-09 13:00:00 31.4 5 Nordeste 21 Sudoeste 0 934 -- 30
2020-07-09 12:00:00 29.6 5 Sudoeste 17 Sur 0 934.2 -- 35
2020-07-09 11:00:00 27.7 5 Este 17 Este 0 934.5 -- 40
2020-07-09 10:00:00 25.9 9 Sudeste 17 Sur 0 934.6 -- 44
2020-07-09 09:00:00 23 6 Norte 15 Nordeste 0 934.3 -- 47
2020-07-09 08:00:00 21.4 7 Nordeste 14 Nordeste 0 934 -- 51
2020-07-09 07:00:00 19.6 6 Nordeste 12 Nordeste 0 933.6 -- 51
2020-07-09 06:00:00 20.3 5 Norte 11 Sudeste 0 933.6 -- 49
2020-07-09 05:00:00 21.3 6 Este 17 Nordeste 0 933.2 -- 45
2020-07-09 04:00:00 21.7 4 Este 21 Este 0 933 -- 44
2020-07-09 03:00:00 22.9 15 Este 25 Este 0 932.9 -- 41
2020-07-09 02:00:00 24.2 11 Nordeste 21 Nordeste 0 933.1 -- 38
2020-07-09 01:00:00 24.4 8 Nordeste 20 Nordeste 0 933.2 -- 38
2020-07-09 00:00:00 25.6 9 Norte 29 Norte 0 932.9 -- 35
2020-07-08 23:00:00 26.3 15 Sudeste 45 Sudeste 0 931.8 -- 33
2020-07-08 22:00:00 27.1 28 Sudeste 53 Sudeste 0 930.4 -- 32
2020-07-08 21:00:00 28.8 33 Sudeste 63 Sudeste 0 930.9 -- 29
2020-07-08 20:00:00 31 33 Sudeste 59 Sudeste 0 930.9 -- 27
2020-07-08 19:00:00 32.6 23 Sudeste 42 Sudeste 0 930.5 -- 25
2020-07-08 18:00:00 31.2 22 Sudeste 45 Este 0 930.8 -- 29
2020-07-08 17:00:00 29.3 20 Sudeste 57 Sudeste 0 931 -- 32
2020-07-08 16:00:00 30.1 24 Sudeste 63 Sur 0.2 931.9 -- 25
2020-07-08 15:00:00 35.7 13 Sur 35 Sudeste 0 931.2 -- 17
2020-07-08 14:00:00 35.2 24 Sudeste 39 Sudeste 0 931.7 -- 18
2020-07-08 13:00:00 34.3 19 Este 38 Este 0 932.1 -- 20
2020-07-08 12:00:00 32.5 24 Este 39 Este 0 932 -- 22
2020-07-08 11:00:00 29.7 20 Este 33 Este 0 932.9 -- 28
2020-07-08 10:00:00 24.3 18 Este 67 Este 0 932.9 -- 43
2020-07-08 09:00:00 22.4 14 Sudoeste 52 Sudoeste 0.4 936.5 -- 54
2020-07-08 08:00:00 23.2 9 Nordeste 23 Nordeste 0 932.6 -- 44
2020-07-08 07:00:00 23.7 9 Norte 26 Sudeste 0 932.2 -- 39
2020-07-08 06:00:00 22.2 8 Sudeste 16 Este 0 931.7 -- 40
2020-07-08 05:00:00 22.8 7 Nordeste 21 Noroeste 0 932 -- 40
2020-07-08 04:00:00 22.5 10 Nordeste 17 Nordeste 0 931.6 -- 42
2020-07-08 03:00:00 22.6 4 Nordeste 5 Este 0 932 -- 37
2020-07-08 02:00:00 24.9 2 Norte 8 Nordeste 0 932.1 -- 32
2020-07-08 01:00:00 27.7 4 Nordeste 9 Nordeste 0 932.3 -- 25
2020-07-08 00:00:00 30.5 3 Sudoeste 24 Sudoeste 0 932 -- 20
2020-07-07 23:00:00 31.6 10 Sudoeste 17 Sudoeste 0 931.5 -- 18
2020-07-07 22:00:00 33.1 10 Sudoeste 16 Sudoeste 0 930.8 -- 18
2020-07-07 21:00:00 35.1 9 Oeste 17 Oeste 0 930.6 -- 19
2020-07-07 20:00:00 36.8 8 Oeste 25 Sudoeste 0 930.6 -1.1 17
2020-07-07 19:00:00 37.5 9 Sudoeste 24 Oeste 0 930.7 -1.4 16
2020-07-07 18:00:00 37.1 13 Sudoeste 26 Sudoeste 0 931.2 -1.2 15
2020-07-07 17:00:00 37.4 8 Oeste 29 Sudoeste 0 931.7 -1.4 15
2020-07-07 16:00:00 36.4 8 Sur 28 Oeste 0 932.1 -1.4 18
2020-07-07 15:00:00 35.6 6 Noroeste 20 Oeste 0 932.4 -1.6 22
2020-07-07 14:00:00 34.7 8 Oeste 15 Oeste 0 933.1 -1.1 23
2020-07-07 13:00:00 33.3 3 Noroeste 12 Noroeste 0 933.5 -0.9 24
2020-07-07 12:00:00 30.6 6 Noroeste 10 Noroeste 0 934 -0.3 20
2020-07-07 11:00:00 27.8 4 Nordeste 12 Norte 0 934.2 -0.1 20
2020-07-07 10:00:00 24.4 5 Norte 11 Norte 0 934.4 0.1 23
2020-07-07 09:00:00 21.7 5 Nordeste 12 Nordeste 0 934.3 0.1 26
2020-07-07 08:00:00 19.3 4 Norte 7 Noroeste 0 934.3 0 31
2020-07-07 07:00:00 18.4 4 Norte 12 Norte 0 934.3 -- 32
2020-07-07 06:00:00 19.7 8 Norte 14 Nordeste 0 934.2 -- 34
2020-07-07 05:00:00 20.6 9 Nordeste 18 Nordeste 0 934.3 -- 47
2020-07-07 04:00:00 21.2 6 Nordeste 13 Este 0 934.3 -- 47
2020-07-07 03:00:00 22.2 6 Norte 21 Nordeste 0 934.4 -- 45
2020-07-07 02:00:00 23.2 8 Nordeste 21 Este 0 934.3 -- 44
2020-07-07 01:00:00 24.5 10 Nordeste 22 Nordeste 0 934.5 -- 42
2020-07-07 00:00:00 26.1 9 Nordeste 24 Nordeste 0 934.6 -- 39
2020-07-06 23:00:00 28 12 Nordeste 30 Este 0 934 -- 35
2020-07-06 22:00:00 30.8 16 Nordeste 28 Este 0 933 -- 30
2020-07-06 21:00:00 32.9 10 Nordeste 22 Norte 0 932.4 -- 28
2020-07-06 20:00:00 34.8 10 Nordeste 25 Noroeste 0 932.3 -- 25
2020-07-06 19:00:00 36.1 12 Noroeste 21 Noroeste 0 932.4 -- 23
2020-07-06 18:00:00 35.8 7 Noroeste 22 Noroeste 0 932.8 -- 24
2020-07-06 17:00:00 35.1 7 Nordeste 21 Nordeste 0 933.2 -- 25
2020-07-06 16:00:00 35.5 7 Nordeste 22 Norte 0 933.6 -- 24
2020-07-06 15:00:00 34.3 10 Nordeste 21 Nordeste 0 934.2 -- 25
2020-07-06 14:00:00 33.5 8 Norte 21 Nordeste 0 934.7 -- 26
2020-07-06 13:00:00 32.8 6 Norte 20 Noroeste 0 934.9 -- 26
2020-07-06 12:00:00 31.6 5 Este 15 Noroeste 0 935.1 -- 29
2020-07-06 11:00:00 29 7 Norte 15 Nordeste 0 935.4 -- 33
2020-07-06 10:00:00 27.3 6 Nordeste 17 Nordeste 0 935.6 -- 39
2020-07-06 09:00:00 24.4 11 Nordeste 18 Nordeste 0 935.8 -- 47
2020-07-06 08:00:00 21.7 6 Nordeste 17 Nordeste 0 935.6 -- 52
2020-07-06 07:00:00 20.4 11 Nordeste 17 Nordeste 0 935.4 -- 55
2020-07-06 06:00:00 20.4 10 Este 17 Nordeste 0 935.2 -- 52
2020-07-06 05:00:00 21.6 4 Norte 21 Este 0 935 -- 48
2020-07-06 04:00:00 22 10 Nordeste 18 Nordeste 0 935.1 -- 45
2020-07-06 03:00:00 23.1 6 Nordeste 14 Nordeste 0 935.3 -- 39
2020-07-06 02:00:00 24.5 4 Norte 13 Noroeste 0 935.5 -- 34
2020-07-06 01:00:00 25.8 4 Norte 14 Este 0 935.4 -- 27
2020-07-06 00:00:00 26.7 4 Norte 10 Norte 0 935.1 -- 26
2020-07-05 23:00:00 28 2 Nordeste 9 Este 0 934.9 -- 23
2020-07-05 22:00:00 30.6 4 Nordeste 10 Sudeste 0 934.5 -- 20
2020-07-05 21:00:00 33.5 3 Sur 9 Este 0 934.2 -- 16
2020-07-05 20:00:00 35.4 5 Sur 18 Oeste 0 934 -- 14
2020-07-05 19:00:00 35.9 8 Este 19 Sur 0 934.2 -- 13
2020-07-05 18:00:00 35.7 10 Oeste 20 Sudoeste 0 934.7 -- 13
2020-07-05 17:00:00 35.6 6 Sudeste 22 Sudoeste 0 935.5 -- 15
2020-07-05 16:00:00 34.4 12 Nordeste 24 Nordeste 0 935.9 -- 16
2020-07-05 15:00:00 33.5 6 Noroeste 16 Oeste 0 936.5 -- 18
2020-07-05 14:00:00 33 4 Noroeste 14 Noroeste 0 937.2 -- 15
2020-07-05 13:00:00 31 5 Norte 13 Norte 0 937.8 -- 27
2020-07-05 12:00:00 29.4 5 Noroeste 11 Noroeste 0 938.1 -- 31
2020-07-05 11:00:00 27 5 Norte 10 Noroeste 0 938.4 -- 30
2020-07-05 10:00:00 23.5 5 Norte 9 Nordeste 0 938.8 -- 35
2020-07-05 09:00:00 20.7 6 Norte 11 Nordeste 0 938.7 -- 37
2020-07-05 08:00:00 17.6 6 Nordeste 10 Este 0 938.7 -- 42
2020-07-05 07:00:00 15.9 2 Este 6 Norte 0 938.6 -- 44
2020-07-05 06:00:00 17 3 Nordeste 8 Nordeste 0 938.5 -- 42
2020-07-05 05:00:00 18.7 4 Norte 13 Nordeste 0 938.3 -- 39
2020-07-05 04:00:00 20.4 5 Sudoeste 20 Norte 0 938.4 -- 33
2020-07-05 03:00:00 20.6 4 Nordeste 18 Nordeste 0 938.6 -- 33
2020-07-05 02:00:00 21.9 8 Nordeste 21 Nordeste 0 938.8 -- 30
2020-07-05 01:00:00 23.6 10 Nordeste 21 Nordeste 0 938.6 -- 26
2020-07-05 00:00:00 24.2 9 Nordeste 17 Nordeste 0 938.2 -- 20
2020-07-04 23:00:00 26 9 Este 20 Este 0 937.6 -- 17
2020-07-04 22:00:00 28.4 10 Nordeste 16 Nordeste 0 936.9 -- 16
2020-07-04 21:00:00 31.4 4 Nordeste 13 Nordeste 0 936.4 -- 16
2020-07-04 20:00:00 33.3 5 Nordeste 14 Nordeste 0 936.2 -- 14
2020-07-04 19:00:00 33.7 3 Noroeste 14 Noroeste 0 936.3 -- 13
2020-07-04 18:00:00 33.7 5 Este 12 Noroeste 0 936.7 -- 13
2020-07-04 17:00:00 33.6 3 Oeste 16 Nordeste 0 937.1 -- 13
2020-07-04 16:00:00 32.6 5 Sur 14 Noroeste 0 937.5 -- 14
2020-07-04 15:00:00 31.2 6 Noroeste 14 Este 0 937.9 -- 18
2020-07-04 14:00:00 30.9 4 Oeste 15 Sudoeste 0 938.5 -- 20
2020-07-04 13:00:00 28.9 5 Norte 14 Noroeste 0 939.1 -- 20
2020-07-04 12:00:00 27.9 6 Oeste 12 Nordeste 0 939 -- 26
2020-07-04 11:00:00 25.4 7 Norte 14 Noroeste 0 939 -- 33
2020-07-04 10:00:00 22.3 5 Norte 10 Norte 0 939 -- 42
2020-07-04 09:00:00 19.2 6 Norte 11 Noroeste 0 938.9 -- 49
2020-07-04 08:00:00 18 4 Nordeste 9 Nordeste 0 938.7 -- 51
2020-07-04 07:00:00 17.1 3 Norte 14 Norte 0 938.5 -- 54
2020-07-04 06:00:00 17.7 4 Norte 17 Nordeste 0 938 -- 51
2020-07-04 05:00:00 18.1 8 Norte 24 Nordeste 0 937.8 -- 45
2020-07-04 04:00:00 19 13 Nordeste 31 Este 0 937.7 -- 39
2020-07-04 03:00:00 19.5 14 Nordeste 25 Nordeste 0 937.8 -- 36
2020-07-04 02:00:00 20.4 13 Nordeste 26 Este 0 937.6 -- 35
2020-07-04 01:00:00 21.9 9 Nordeste 18 Nordeste 0 937 -- 30
2020-07-04 00:00:00 23.3 9 Este 20 Este 0 936.8 -- 30
2020-07-03 23:00:00 25 8 Nordeste 14 Norte 0 936.2 -- 27
2020-07-03 22:00:00 27.8 7 Nordeste 13 Norte 0 935.3 -- 22
2020-07-03 21:00:00 29.4 4 Norte 15 Sudoeste 0 934.9 -- 20
2020-07-03 20:00:00 31.3 5 Sur 16 Este 0 934.6 -- 18
2020-07-03 19:00:00 31.1 9 Este 18 Noroeste 0 934.6 -- 17
2020-07-03 18:00:00 31.4 7 Sudoeste 15 Sudoeste 0 934.8 -- 17
2020-07-03 17:00:00 30.7 7 Sudoeste 16 Norte 0 935.2 -- 19
2020-07-03 16:00:00 29.1 6 Nordeste 18 Noroeste 0 935.4 -- 20
2020-07-03 15:00:00 28.6 9 Oeste 21 Sudoeste 0 935.7 -- 26
2020-07-03 14:00:00 27.9 7 Oeste 21 Noroeste 0 936 -- 30
2020-07-03 13:00:00 26.4 8 Norte 21 Nordeste 0 936.2 -- 35
2020-07-03 12:00:00 24.5 10 Nordeste 21 Nordeste 0 936.5 -- 41
2020-07-03 11:00:00 22.9 9 Nordeste 24 Nordeste 0 936.3 -- 49
2020-07-03 10:00:00 20.4 13 Nordeste 27 Nordeste 0 936.5 -- 56
2020-07-03 09:00:00 18.2 14 Nordeste 28 Nordeste 0 936.5 -- 62
2020-07-03 08:00:00 16.1 13 Nordeste 28 Nordeste 0 936 -- 68
2020-07-03 07:00:00 15.1 14 Nordeste 32 Nordeste 0 935.8 -- 71
2020-07-03 06:00:00 15.5 17 Nordeste 32 Nordeste 0 935.4 -- 69
2020-07-03 05:00:00 16.2 14 Nordeste 31 Nordeste 0 935 -- 68
2020-07-03 04:00:00 16.9 17 Nordeste 28 Nordeste 0 935.1 -- 67
2020-07-03 03:00:00 17.8 13 Nordeste 28 Nordeste 0 934.8 -- 66
2020-07-03 02:00:00 19 13 Nordeste 29 Nordeste 0 934.5 -- 62
2020-07-03 01:00:00 21.5 11 Nordeste 23 Nordeste 0 934.2 -- 57
2020-07-03 00:00:00 24.5 6 Norte 18 Norte 0 933.2 -- 32
2020-07-02 23:00:00 26.1 5 Norte 13 Norte 0 932.7 -- 31
2020-07-02 22:00:00 27.3 6 Norte 22 Noroeste 0 931.9 -- 30
2020-07-02 21:00:00 29.2 9 Norte 26 Noroeste 0 931.2 -- 27
2020-07-02 20:00:00 30.2 11 Oeste 35 Sudoeste 0 930.6 -- 25
2020-07-02 19:00:00 31.8 15 Oeste 27 Sudoeste 0 930.5 -- 21
2020-07-02 18:00:00 32 15 Sudoeste 36 Sudoeste 0 930.7 -- 18
2020-07-02 17:00:00 31.5 18 Sudoeste 44 Sudoeste 0 931 -- 17
2020-07-02 16:00:00 31.6 20 Oeste 44 Sudoeste 0 931.5 -- 20
2020-07-02 15:00:00 31.7 16 Sudoeste 36 Oeste 0 931.7 -- 20
2020-07-02 14:00:00 30.6 17 Sudoeste 42 Sudoeste 0 932.1 -- 21
2020-07-02 13:00:00 29.6 18 Sudoeste 36 Oeste 0 932.2 -- 25
2020-07-02 12:00:00 28.3 17 Oeste 28 Oeste 0 932.4 -- 30
2020-07-02 11:00:00 27.3 8 Sudoeste 14 Sudoeste 0 932.3 -- 32
2020-07-02 10:00:00 24.7 4 Nordeste 9 Noroeste 0 932.3 -- 37
2020-07-02 09:00:00 22 4 Norte 9 Norte 0 932.1 -- 43
2020-07-02 08:00:00 20.1 3 Norte 7 Este 0 931.6 -- 46
2020-07-02 07:00:00 18.6 4 Norte 8 Norte 0 931.5 -- 50
2020-07-02 06:00:00 19.3 2 Oeste 6 Este 0 931.1 -- 46
2020-07-02 05:00:00 19.5 0 Calma 4 Nordeste 0 931.1 -- 44
2020-07-02 04:00:00 20.1 3 Este 4 Nordeste 0 931.3 -- 41
2020-07-02 03:00:00 21.2 0 Calma 7 Norte 0 931.3 -- 39
2020-07-02 02:00:00 22.3 2 Sudeste 6 Sudeste 0 931.3 -- 37
2020-07-02 01:00:00 24 3 Sudeste 5 Norte 0 931.4 -- 34
2020-07-02 00:00:00 25.3 3 Sur 6 Sur 0 931.2 -- 30
2020-07-01 23:00:00 28.2 3 Nordeste 9 Norte 0 930.7 -- 26
2020-07-01 22:00:00 30.4 6 Norte 19 Noroeste 0 929.9 -- 22
2020-07-01 21:00:00 31.6 12 Noroeste 21 Noroeste 0 929.4 -- 20
2020-07-01 20:00:00 32.7 9 Oeste 29 Oeste 0 929 -- 24
2020-07-01 19:00:00 33.6 15 Oeste 34 Oeste 0 929 -- 22
2020-07-01 18:00:00 32.8 17 Sudoeste 44 Sudoeste 0 929.2 -- 20
2020-07-01 17:00:00 33.7 19 Sudoeste 40 Sudoeste 0 929.5 -- 19
2020-07-01 16:00:00 33.6 17 Sudoeste 38 Oeste 0 929.8 -- 21
2020-07-01 15:00:00 32.8 19 Oeste 40 Oeste 0 930.1 -- 22
2020-07-01 14:00:00 31.9 19 Sudoeste 37 Oeste 0 930.2 -- 19
2020-07-01 13:00:00 31.1 20 Sudoeste 33 Oeste 0 930.5 -- 19
2020-07-01 12:00:00 30 15 Oeste 28 Sudoeste 0 930.7 -- 29
2020-07-01 11:00:00 27.9 13 Oeste 22 Oeste 0 930.7 -- 34
2020-07-01 10:00:00 25.9 10 Sudoeste 20 Sudoeste 0 930.8 -- 40
2020-07-01 09:00:00 24.6 6 Sudoeste 10 Sudoeste 0 930.4 -- 44
2020-07-01 08:00:00 21.8 6 Sur 11 Sudeste 0 930 -- 57
2020-07-01 07:00:00 20.1 2 Sudoeste 9 Sur 0 929.5 -- 66
2020-07-01 06:00:00 20.2 5 Sur 11 Sur 0 929.2 -- 67
2020-07-01 05:00:00 20.7 4 Este 8 Sur 0 929 -- 66
2020-07-01 04:00:00 22 7 Este 15 Nordeste 0 929.2 -- 61
2020-07-01 03:00:00 23 8 Nordeste 14 Nordeste 0 928.9 -- 58
2020-07-01 02:00:00 23.8 7 Este 13 Nordeste 0 928.8 -- 51
2020-07-01 01:00:00 25.5 4 Nordeste 18 Este 0 929.1 -- 42
2020-07-01 00:00:00 26.8 0 Calma 8 Sur 0 928.8 -- 32
2020-06-30 23:00:00 29.3 4 Sur 10 Sudoeste 0 928.6 -- 26
2020-06-30 22:00:00 32.2 5 Sudoeste 19 Oeste 0 927.5 -- 22
2020-06-30 21:00:00 34.2 5 Oeste 26 Oeste 0 927 -- 18
2020-06-30 20:00:00 35.8 10 Oeste 32 Oeste 0 926.7 -- 17
2020-06-30 19:00:00 36.2 20 Oeste 38 Oeste 0 926.7 -- 16
2020-06-30 18:00:00 36.7 13 Oeste 37 Oeste 0 927.4 -- 16
2020-06-30 17:00:00 36.2 22 Sudoeste 49 Sudoeste 0 928 -- 16
2020-06-30 16:00:00 36.4 14 Oeste 31 Sudoeste 0 928.5 -- 17
2020-06-30 15:00:00 35.7 11 Oeste 32 Sudoeste 0 929.2 -- 20
2020-06-30 14:00:00 34.4 7 Oeste 27 Sudoeste 0 929.8 -- 24
2020-06-30 13:00:00 33.2 8 Sudoeste 18 Sudoeste 0 930.3 -- 27
2020-06-30 12:00:00 31 5 Oeste 21 Sudoeste 0 930.7 -- 30
2020-06-30 11:00:00 28.5 6 Nordeste 12 Norte 0 931.1 -- 37
2020-06-30 10:00:00 26.8 5 Este 12 Este 0 931.5 -- 40
2020-06-30 09:00:00 23.6 5 Norte 9 Este 0 931.7 -- 58
2020-06-30 08:00:00 21.4 3 Nordeste 11 Nordeste 0 931.5 -- 61
2020-06-30 07:00:00 19.6 3 Sudeste 12 Este 0 931.3 -- 65
2020-06-30 06:00:00 20.1 8 Este 14 Nordeste 0 930.9 -- 65
2020-06-30 05:00:00 21 6 Nordeste 9 Este 0 930.7 -- 62
2020-06-30 04:00:00 21.5 4 Nordeste 13 Norte 0 930.7 -- 60
2020-06-30 03:00:00 23.6 5 Norte 22 Nordeste 0 931.1 -- 54
2020-06-30 02:00:00 23.3 7 Nordeste 17 Nordeste 0 931.5 -- 56
2020-06-30 01:00:00 23.6 6 Este 15 Norte 0 931.4 -- 34
2020-06-30 00:00:00 25.5 4 Nordeste 12 Este 0 931.3 -- 23
2020-06-29 23:00:00 27.1 6 Sur 11 Sur 0 930.8 -- 21
2020-06-29 22:00:00 29.9 7 Sur 18 Oeste 0 930.3 -- 19
2020-06-29 21:00:00 33.2 9 Oeste 21 Oeste 0 930.3 -- 14
2020-06-29 20:00:00 34.9 14 Sudoeste 24 Sudoeste 0 930.3 -- 15
2020-06-29 19:00:00 35.5 13 Oeste 24 Sudoeste 0 930.5 -- 16
2020-06-29 18:00:00 35.5 13 Oeste 27 Oeste 0 931 -- 17
2020-06-29 17:00:00 35.2 10 Oeste 25 Oeste 0 931.6 -- 19
2020-06-29 16:00:00 34.3 14 Oeste 31 Oeste 0 932.2 -- 21
2020-06-29 15:00:00 33.5 13 Oeste 30 Sudoeste 0 932.7 -- 21
2020-06-29 14:00:00 32.5 11 Sudoeste 29 Sudoeste 0 933.3 -- 25
2020-06-29 13:00:00 31.9 10 Sudoeste 20 Oeste 0 933.8 -- 25
2020-06-29 12:00:00 30.5 5 Noroeste 11 Norte 0 934.2 -- 37
2020-06-29 11:00:00 28.2 3 Noroeste 12 Noroeste 0 934.3 -- 44
2020-06-29 10:00:00 25.1 7 Norte 13 Noroeste 0 934.4 -- 53
2020-06-29 09:00:00 23.2 6 Norte 13 Nordeste 0 934.5 -- 58
2020-06-29 08:00:00 21.8 7 Nordeste 16 Nordeste 0 934.1 -- 62
2020-06-29 07:00:00 20.1 6 Nordeste 13 Nordeste 0 933.9 -- 67
2020-06-29 06:00:00 19.3 8 Nordeste 11 Este 0 933.6 -- 68
2020-06-29 05:00:00 21.3 4 Norte 12 Nordeste 0 933.5 -- 55
2020-06-29 04:00:00 21.9 7 Nordeste 14 Nordeste 0 933.3 -- 52
2020-06-29 03:00:00 21.7 2 Este 4 Norte 0 933.5 -- 49
2020-06-29 02:00:00 22.5 2 Oeste 6 Este 0 933.6 -- 47
2020-06-29 01:00:00 23.7 4 Nordeste 5 Este 0 933.8 -- 42
2020-06-29 00:00:00 25.3 4 Nordeste 7 Sur 0 933.7 -- 35
2020-06-28 23:00:00 27.5 3 Sudeste 11 Noroeste 0 933.3 -- 30
2020-06-28 22:00:00 29 6 Sur 14 Sudoeste 0 932.7 -- 27
2020-06-28 21:00:00 31.5 8 Sudoeste 19 Sur 0 932.6 -- 23
2020-06-28 20:00:00 33.3 6 Sudoeste 22 Sudoeste 0 932.6 -- 22
2020-06-28 19:00:00 33.5 12 Oeste 26 Oeste 0 932.7 -- 20
2020-06-28 18:00:00 33.8 8 Oeste 26 Sudoeste 0 933.1 -- 20
2020-06-28 17:00:00 33.2 8 Sudoeste 23 Oeste 0 933.5 -- 20
2020-06-28 16:00:00 32.9 11 Oeste 25 Oeste 0 933.9 -1.2 23
2020-06-28 15:00:00 31.9 10 Oeste 22 Oeste 0 934.2 -- 26
2020-06-28 14:00:00 31.2 9 Oeste 26 Sudoeste 0 934.5 -- 29
2020-06-28 13:00:00 30.5 5 Oeste 15 Oeste 0 935.1 -- 32
2020-06-28 12:00:00 29.2 5 Norte 13 Noroeste 0 935.3 -- 34
2020-06-28 11:00:00 26.6 5 Norte 14 Noroeste 0 935.5 -- 44
2020-06-28 10:00:00 24 6 Noroeste 10 Norte 0 935.5 -- 52
2020-06-28 09:00:00 21.9 5 Norte 12 Nordeste 0 935.3 -- 56
2020-06-28 08:00:00 20.4 4 Nordeste 12 Nordeste 0 935.2 -- 60
2020-06-28 07:00:00 18 0 Calma 12 Nordeste 0 934.7 -- 64
2020-06-28 06:00:00 19.3 8 Nordeste 13 Nordeste 0 934.3 -- 60
2020-06-28 05:00:00 19.4 7 Nordeste 13 Este 0 934.3 -- 59
2020-06-28 04:00:00 19.8 5 Este 9 Este 0 934.3 -- 56
2020-06-28 03:00:00 21.2 6 Este 15 Este 0 934.3 -- 51
2020-06-28 02:00:00 22.5 9 Nordeste 15 Nordeste 0 934.1 -- 47
2020-06-28 01:00:00 23.3 8 Nordeste 13 Este 0 934.1 -- 46
2020-06-28 00:00:00 24.6 3 Nordeste 10 Este 0 933.7 -- 42
2020-06-27 23:00:00 26.9 5 Nordeste 15 Norte 0 933.2 -- 35
2020-06-27 22:00:00 28.4 4 Nordeste 14 Sudoeste 0 932.4 -- 32
2020-06-27 21:00:00 29.5 9 Sudoeste 14 Oeste 0 932 -- 28
2020-06-27 20:00:00 31.5 5 Oeste 19 Sudoeste 0 931.9 -- 24
2020-06-27 19:00:00 31.6 12 Sudoeste 26 Sudoeste 0 931.8 -- 24
2020-06-27 18:00:00 31.7 9 Oeste 32 Oeste 0 932.2 -- 25
2020-06-27 17:00:00 31.7 8 Sudoeste 24 Sudoeste 0 932.3 -- 25
2020-06-27 16:00:00 31.1 8 Sudoeste 23 Sudoeste 0 932.7 -- 25
2020-06-27 15:00:00 29.8 11 Sudoeste 27 Oeste 0 933.1 -- 26
2020-06-27 14:00:00 28.9 9 Sudoeste 22 Oeste 0 933.5 -- 28
2020-06-27 13:00:00 28 10 Oeste 23 Oeste 0 933.8 -- 28
2020-06-27 12:00:00 27.1 7 Oeste 17 Oeste 0 933.8 -- 29
2020-06-27 11:00:00 25.6 5 Noroeste 15 Este 0 933.8 -- 36
2020-06-27 10:00:00 24 9 Este 22 Sudeste 0 933.9 -- 38
2020-06-27 09:00:00 21.5 6 Nordeste 14 Nordeste 0 933.7 -- 43
2020-06-27 08:00:00 17 5 Nordeste 12 Este 0 933.6 -- 53
2020-06-27 07:00:00 15.9 0 Calma 5 Este 0 933.4 -- 55
2020-06-27 06:00:00 16.4 2 Nordeste 6 Nordeste 0 933 -- 52
2020-06-27 05:00:00 17.5 4 Nordeste 8 Nordeste 0 932.5 -- 47
2020-06-27 04:00:00 17.9 0 Calma 7 Sudeste 0 932.3 -- 45
2020-06-27 03:00:00 17.8 2 Sur 8 Este 0 932.2 -- 43
2020-06-27 02:00:00 18.5 3 Sur 6 Sur 0 932 -- 41
2020-06-27 01:00:00 19.9 3 Sudeste 6 Sur 0 931.8 -- 38
2020-06-27 00:00:00 22.4 2 Sur 11 Oeste 0 931.7 -- 32
2020-06-26 23:00:00 24.3 7 Sudoeste 17 Oeste 0 931.2 -- 26
2020-06-26 22:00:00 26.4 11 Oeste 24 Oeste 0 930.4 -- 21
2020-06-26 21:00:00 27.5 15 Oeste 29 Oeste 0 930 -- 20
2020-06-26 20:00:00 28.6 10 Oeste 32 Oeste 0 929.7 -- 20
2020-06-26 19:00:00 30.3 18 Oeste 42 Sudoeste 0 929.5 -- 21
2020-06-26 18:00:00 30.7 16 Oeste 44 Oeste 0 929.5 -- 22
2020-06-26 17:00:00 30.5 22 Sudoeste 45 Sudoeste 0 929.9 -- 24
2020-06-26 16:00:00 30.5 21 Oeste 36 Oeste 0 930.5 -- 26
2020-06-26 15:00:00 29.4 17 Sudoeste 41 Sudoeste 0 930.8 -- 28
2020-06-26 14:00:00 29.1 19 Sudoeste 34 Oeste 0 931 -- 32
2020-06-26 13:00:00 29 13 Oeste 34 Oeste 0 931.4 -- 33
2020-06-26 12:00:00 27.9 12 Oeste 23 Sudoeste 0 931.5 -- 36
2020-06-26 11:00:00 26.5 10 Sur 21 Sudoeste 0 931.6 -- 40
2020-06-26 10:00:00 24.9 9 Sur 19 Sur 0 931.8 -- 42
2020-06-26 09:00:00 23 2 Nordeste 9 Nordeste 0 931.9 -- 45
2020-06-26 08:00:00 19.7 3 Nordeste 6 Sur 0 931.8 -- 56
2020-06-26 07:00:00 18.8 3 Nordeste 9 Norte 0 931.8 -- 63
2020-06-26 06:00:00 19.9 4 Oeste 10 Norte 0 931.4 -- 53
2020-06-26 05:00:00 21.2 5 Este 13 Norte 0 931.4 -- 46
2020-06-26 04:00:00 21.4 9 Noroeste 23 Sudeste 0 931.2 -- 54
2020-06-26 03:00:00 20.3 4 Norte 9 Norte 0 931.1 -- 70
2020-06-26 02:00:00 20 4 Oeste 12 Este 0 931.4 -- 78
2020-06-26 01:00:00 21.3 5 Norte 12 Norte 0 931.4 -- 68
2020-06-26 00:00:00 20.9 5 Norte 14 Norte 0 931.6 -- 73
2020-06-25 23:00:00 21.6 8 Nordeste 19 Norte 0 931.3 -- 63
2020-06-25 22:00:00 22.7 8 Nordeste 18 Sudeste 0.2 930.2 -- 63
2020-06-25 21:00:00 26.5 9 Este 37 Oeste 0.8 929.7 -- 53
2020-06-25 20:00:00 30.8 8 Sudoeste 30 Sur 0 929.1 -- 28
2020-06-25 19:00:00 30.8 12 Sudoeste 32 Sudoeste 0.2 928.8 -- 31
2020-06-25 18:00:00 32.4 15 Sudoeste 42 Sur 0 929.1 -- 23
2020-06-25 17:00:00 34.4 16 Sudoeste 40 Sudoeste 0 929.7 -- 21
2020-06-25 16:00:00 34.3 18 Sur 34 Sur 0 930.1 -- 23
2020-06-25 15:00:00 33.3 16 Sudoeste 29 Sudoeste 0 931 -- 26
2020-06-25 14:00:00 32.5 10 Sudoeste 27 Oeste 0 931.8 -- 27
2020-06-25 13:00:00 31.1 14 Sudoeste 29 Sur 0 932.3 -- 29
2020-06-25 12:00:00 30.1 6 Sudoeste 24 Sudoeste 0 932.5 -- 31
2020-06-25 11:00:00 27.1 5 Oeste 14 Noroeste 0 932.9 -- 40
2020-06-25 10:00:00 23.9 8 Noroeste 13 Norte 0 933 -- 51
2020-06-25 09:00:00 22.2 5 Norte 12 Norte 0 932.9 -- 58
2020-06-25 08:00:00 20.3 10 Norte 17 Norte 0 933 -- 62
2020-06-25 07:00:00 19.3 5 Este 12 Este 0 933.1 -- 63
2020-06-25 06:00:00 21.2 4 Este 13 Norte 0 932.9 -- 55
2020-06-25 05:00:00 21.6 9 Este 22 Este 0 932.8 -- 53
2020-06-25 04:00:00 21.5 10 Este 19 Este 0 933.1 -- 53
2020-06-25 03:00:00 20.9 2 Oeste 8 Noroeste 0 933.3 -- 61
2020-06-25 02:00:00 22.4 0 Calma 11 Norte 0 933.3 -- 56
2020-06-25 01:00:00 24.5 6 Sudeste 19 Sudeste 0 933.5 -- 42
2020-06-25 00:00:00 24.1 3 Sur 10 Este 0 933.8 -- 44
2020-06-24 23:00:00 25.9 6 Este 9 Norte 0 933.4 -- 40
2020-06-24 22:00:00 27.3 2 Este 8 Nordeste 0 932.9 -- 44
2020-06-24 21:00:00 29.4 4 Nordeste 11 Nordeste 0 932.4 -- 35
2020-06-24 20:00:00 30.9 4 Nordeste 12 Noroeste 0 932.6 -- 30
2020-06-24 19:00:00 31.3 3 Noroeste 12 Noroeste 0 932.8 -- 29
2020-06-24 18:00:00 29.7 6 Noroeste 15 Sudeste 0 933.1 -- 37
2020-06-24 17:00:00 29.8 4 Nordeste 13 Norte 0 933.3 -- 35
2020-06-24 16:00:00 26.9 7 Nordeste 39 Nordeste 0 934.1 -- 42
2020-06-24 15:00:00 25.4 22 Este 38 Este 0 934.6 -- 49
2020-06-24 14:00:00 22 13 Nordeste 28 Este 0 935.3 -- 70
2020-06-24 13:00:00 20.7 11 Este 29 Sur 3.8 935.4 -- 75
2020-06-24 12:00:00 26.5 19 Sudoeste 40 Sudoeste 0.2 934.6 -- 47
2020-06-24 11:00:00 28.5 4 Este 11 Nordeste 0 933.7 -- 35
2020-06-24 10:00:00 25.4 6 Norte 11 Norte 0 934 -- 46
2020-06-24 09:00:00 23 6 Norte 11 Norte 0 933.7 -- 53
2020-06-24 08:00:00 21.7 7 Sudeste 15 Sudeste 0 933.4 -- 55
2020-06-24 07:00:00 21.3 5 Sur 9 Sudoeste 0 933.1 -- 56
2020-06-24 06:00:00 22.6 4 Norte 21 Noroeste 0 932.8 -- 51
2020-06-24 05:00:00 23.9 16 Sudeste 50 Sudeste 0 932.1 -- 46
2020-06-24 04:00:00 24.3 19 Sudeste 33 Sudeste 0 933.4 -- 43
2020-06-24 03:00:00 24.2 6 Oeste 44 Este 0 933.3 -- 46
2020-06-24 02:00:00 25.6 14 Sudeste 34 Este 0 933.6 -- 36
2020-06-24 01:00:00 26.1 22 Este 35 Nordeste 0 933.3 -- 39
2020-06-24 00:00:00 27.5 16 Nordeste 35 Nordeste 0 933.5 -- 30
2020-06-23 23:00:00 26.2 0 Calma 5 Sur 0 932.3 -- 29
2020-06-23 22:00:00 30.2 3 Norte 17 Nordeste 0 931.6 -- 25
2020-06-23 21:00:00 33.6 6 Oeste 20 Oeste 0 931 -- 13
2020-06-23 20:00:00 35.6 5 Oeste 18 Oeste 0 930.7 -- 14
2020-06-23 19:00:00 36.1 4 Oeste 16 Noroeste 0 930.8 -- 16
2020-06-23 18:00:00 36.5 8 Oeste 21 Noroeste 0 931.3 -- 15
2020-06-23 17:00:00 35.6 10 Sudoeste 27 Oeste 0 931.7 -- 18
2020-06-23 16:00:00 35.4 9 Sudoeste 28 Sudoeste 0 932.2 -- 18
2020-06-23 15:00:00 34.2 10 Sudeste 22 Sudoeste 0 933 -- 23
2020-06-23 14:00:00 33 8 Sur 19 Sudoeste 0 933.8 -- 27
2020-06-23 13:00:00 31.4 9 Sudeste 20 Sudoeste 0 934.3 -- 29
2020-06-23 12:00:00 30.2 6 Sur 17 Sur 0 934.6 -- 31
2020-06-23 11:00:00 28 7 Sudoeste 18 Sur 0 934.9 -- 36
2020-06-23 10:00:00 26.4 8 Sur 21 Sudeste 0 935.3 -- 40
2020-06-23 09:00:00 24.4 11 Sudeste 19 Sudeste 0 935.5 -- 46
2020-06-23 08:00:00 20.4 2 Oeste 10 Este 0 935.4 -- 60
2020-06-23 07:00:00 18 3 Este 7 Nordeste 0 935.2 -- 66
2020-06-23 06:00:00 19.4 4 Este 10 Este 0 934.9 -- 61
2020-06-23 05:00:00 19.8 6 Nordeste 10 Nordeste 0 935.1 -- 58
2020-06-23 04:00:00 21.2 2 Nordeste 8 Norte 0 935.3 -- 48
2020-06-23 03:00:00 22.6 3 Norte 10 Nordeste 0 935.3 -- 43
2020-06-23 02:00:00 23.8 6 Nordeste 17 Nordeste 0 935.3 -- 38
2020-06-23 01:00:00 24.7 8 Nordeste 13 Este 0 935.1 -- 33
2020-06-23 00:00:00 25.7 4 Sudeste 12 Nordeste 0 935.1 -- 31
2020-06-22 23:00:00 27.7 6 Norte 19 Este 0 934.7 -- 28
2020-06-22 22:00:00 29.3 12 Este 16 Este 0 934.1 -- 25
2020-06-22 21:00:00 31.9 8 Este 13 Este 0 933.9 -- 22
2020-06-22 20:00:00 33.7 6 Este 14 Norte 0 933.9 -- 19
2020-06-22 19:00:00 34.2 8 Este 20 Noroeste 0 934.2 -- 19
2020-06-22 18:00:00 34.5 4 Sur 18 Sudoeste 0 934.8 -- 19
2020-06-22 17:00:00 33.8 8 Oeste 27 Norte 0 935.5 -- 19
2020-06-22 16:00:00 33.4 8 Sudoeste 20 Noroeste 0 936.4 -- 22
2020-06-22 15:00:00 32.2 9 Noroeste 23 Noroeste 0 937.2 -- 23
2020-06-22 14:00:00 31.3 8 Norte 18 Noroeste 0 938 -- 26
2020-06-22 13:00:00 31 4 Noroeste 20 Noroeste 0 938.5 -- 28
2020-06-22 12:00:00 28.5 7 Noroeste 17 Oeste 0 938.9 -- 35
2020-06-22 11:00:00 25.8 5 Norte 18 Norte 0 939.2 -- 41
2020-06-22 10:00:00 23.1 6 Norte 15 Norte 0 939.8 -- 46
2020-06-22 09:00:00 20.1 8 Norte 14 Norte 0 940.1 -- 53
2020-06-22 08:00:00 18.2 6 Nordeste 21 Nordeste 0 940 -- 58
2020-06-22 07:00:00 17.2 11 Nordeste 24 Nordeste 0 939.9 -- 60
2020-06-22 06:00:00 17.7 7 Norte 20 Nordeste 0 939.8 -- 58
2020-06-22 05:00:00 18.3 9 Nordeste 21 Nordeste 0 939.7 -- 58
2020-06-22 04:00:00 19 7 Nordeste 21 Nordeste 0 939.8 -- 56
2020-06-22 03:00:00 20.1 13 Nordeste 22 Nordeste 0 939.9 -- 53
2020-06-22 02:00:00 20.9 13 Nordeste 28 Nordeste 0 940.1 -- 50
2020-06-22 01:00:00 22.3 10 Nordeste 23 Nordeste 0 939.8 -- 46
2020-06-22 00:00:00 24.1 12 Nordeste 22 Nordeste 0 939.4 -- 37
2020-06-21 23:00:00 25.7 11 Nordeste 18 Este 0 938.6 -- 28
2020-06-21 22:00:00 28 6 Este 21 Nordeste 0 937.9 -- 27
2020-06-21 21:00:00 30.6 14 Nordeste 26 Este 0 937.3 -- 25
2020-06-21 20:00:00 32.8 4 Noroeste 24 Sudoeste 0 936.9 -- 19
2020-06-21 19:00:00 33.3 5 Noroeste 18 Sudoeste 0 937 -- 18
2020-06-21 18:00:00 33.2 7 Oeste 24 Noroeste 0 937.4 -- 17
2020-06-21 17:00:00 33.2 6 Oeste 24 Este 0 937.7 -- 16
2020-06-21 16:00:00 32.3 8 Noroeste 26 Sudoeste 0 938.3 -- 18
2020-06-21 15:00:00 31.8 8 Oeste 25 Oeste 0 938.7 -- 19
2020-06-21 14:00:00 31.4 5 Oeste 21 Sudoeste 0 939.2 -- 21
2020-06-21 13:00:00 29.8 8 Oeste 22 Oeste 0 939.5 -- 23
2020-06-21 12:00:00 28.9 5 Noroeste 14 Noroeste 0 939.6 -- 25
2020-06-21 11:00:00 26.7 4 Norte 10 Noroeste 0 939.6 -- 33
2020-06-21 10:00:00 23.5 3 Noroeste 10 Noroeste 0 939.9 -- 39
2020-06-21 09:00:00 21.3 3 Norte 15 Nordeste 0 939.5 -- 44
2020-06-21 08:00:00 18.9 5 Nordeste 8 Nordeste 0 939.1 -- 49
2020-06-21 07:00:00 16 0 Calma 9 Nordeste 0 938.6 -- 55
2020-06-21 06:00:00 16.3 2 Norte 8 Este 0 938.4 -- 53
2020-06-21 05:00:00 16.4 3 Este 5 Este 0 938.2 -- 51
2020-06-21 04:00:00 17.2 2 Noroeste 6 Sudeste 0 938.1 -- 48
2020-06-21 03:00:00 18.1 2 Sudeste 7 Sudeste 0 938.3 -- 45
2020-06-21 02:00:00 19.4 5 Sudeste 8 Sudeste 0 938.4 -- 39
2020-06-21 01:00:00 20.9 5 Sudoeste 10 Norte 0 938.2 -- 38
2020-06-21 00:00:00 22.6 5 Sur 14 Sur 0 937.8 -- 31
2020-06-20 23:00:00 25.3 6 Nordeste 13 Sur 0 937.5 -- 24
2020-06-20 22:00:00 26.3 9 Sur 17 Sudoeste 0 936.6 -- 22
2020-06-20 21:00:00 29.3 10 Sudoeste 21 Sudoeste 0 936.4 -- 17
2020-06-20 20:00:00 30.7 14 Sudoeste 25 Sudoeste 0 936.2 -- 16
2020-06-20 19:00:00 31.5 12 Oeste 26 Oeste 0 936 -- 15
2020-06-20 18:00:00 31.8 10 Sudoeste 29 Sudoeste 0 936.3 -- 16
2020-06-20 17:00:00 31.3 10 Sudoeste 31 Sudoeste 0 936.6 -- 18
2020-06-20 16:00:00 30.1 10 Noroeste 36 Sudoeste 0 937.1 -- 19
2020-06-20 15:00:00 30.1 10 Sudoeste 27 Sudoeste 0 937.4 -- 21
2020-06-20 14:00:00 29.2 8 Oeste 34 Sudoeste 0 937.8 -- 20
2020-06-20 13:00:00 28.4 6 Oeste 23 Oeste 0 938 -- 24
2020-06-20 12:00:00 27.6 6 Sur 15 Este 0 938 -- 28
2020-06-20 11:00:00 25 3 Noroeste 8 Noroeste 0 938.1 -- 36
2020-06-20 10:00:00 21.8 4 Noroeste 10 Noroeste 0 938.1 -- 43
2020-06-20 09:00:00 19.9 2 Norte 5 Norte 0 937.8 -- 48
2020-06-20 08:00:00 16.3 3 Oeste 10 Nordeste 0 937.3 -- 59
2020-06-20 07:00:00 14.2 2 Este 10 Nordeste 0 936.9 -- 62
2020-06-20 06:00:00 15 4 Norte 8 Nordeste 0 936.6 -- 56
2020-06-20 05:00:00 15.5 4 Nordeste 7 Este 0 936.6 -- 53
2020-06-20 04:00:00 16.6 4 Este 8 Este 0 936.4 -- 49
2020-06-20 03:00:00 17 4 Nordeste 6 Sudeste 0 936.2 -- 47
2020-06-20 02:00:00 18.4 0 Calma 12 Sur 0 936.2 -- 43
2020-06-20 01:00:00 20.3 3 Este 8 Norte 0 936 -- 37
2020-06-20 00:00:00 22.9 4 Sudoeste 16 Sudoeste 0 935.8 -- 30
2020-06-19 23:00:00 24.5 4 Sur 15 Sur 0 935.2 -- 25
2020-06-19 22:00:00 24.7 10 Sur 17 Sudoeste 0 934.3 -- 24
2020-06-19 21:00:00 27.4 10 Sudoeste 23 Sudoeste 0 933.7 -- 21
2020-06-19 20:00:00 29 14 Sudoeste 28 Sudoeste 0 933.3 -- 20
2020-06-19 19:00:00 29.6 10 Sudoeste 27 Sudoeste 0 933.2 -- 19
2020-06-19 18:00:00 29.8 7 Oeste 34 Sudoeste 0 933.2 -- 22
2020-06-19 17:00:00 29.1 9 Noroeste 35 Sudoeste 0 933.5 -- 25
2020-06-19 16:00:00 28.5 7 Noroeste 32 Sudoeste 0 933.8 -- 27
2020-06-19 15:00:00 27.4 9 Oeste 39 Sudoeste 0 934.1 -- 30
2020-06-19 14:00:00 27 13 Oeste 27 Oeste 0 934.2 -- 33
2020-06-19 13:00:00 25.7 4 Sudoeste 12 Norte 0 934.4 -- 42
2020-06-19 12:00:00 24.4 5 Oeste 12 Oeste 0 934.7 -- 52
2020-06-19 11:00:00 21.4 6 Noroeste 11 Noroeste 0 934.5 -- 63
2020-06-19 10:00:00 18.6 4 Norte 9 Norte 0 934.7 -- 69
2020-06-19 09:00:00 17.1 4 Norte 6 Nordeste 0 934.4 -- 71
2020-06-19 08:00:00 15.5 2 Nordeste 6 Noroeste 0 934.1 -- 76
2020-06-19 07:00:00 13.6 2 Sudeste 6 Este 0 933.4 -- 82
2020-06-19 06:00:00 13.8 2 Este 6 Sudeste 0 932.9 -- 79
2020-06-19 05:00:00 14.9 3 Nordeste 10 Norte 0 932.5 -- 73
2020-06-19 04:00:00 15.7 2 Nordeste 15 Norte 0 932.2 -- 71
2020-06-19 03:00:00 16.5 6 Norte 19 Nordeste 0 932 -- 67
2020-06-19 02:00:00 17.3 9 Nordeste 19 Nordeste 0 932 -- 65
2020-06-19 01:00:00 18.6 10 Nordeste 25 Nordeste 0 932.1 -- 61
2020-06-19 00:00:00 19.9 12 Nordeste 25 Nordeste 0 931.6 -- 56
2020-06-18 23:00:00 21.9 8 Nordeste 16 Norte 0 931.2 -- 40
2020-06-18 22:00:00 24.5 8 Norte 18 Norte 0 930.1 -- 32
2020-06-18 21:00:00 25.6 8 Sudoeste 25 Oeste 0 929.4 -- 25
2020-06-18 20:00:00 26.9 14 Oeste 40 Oeste 0 928.9 -- 22
2020-06-18 19:00:00 28.1 13 Sudoeste 33 Sudoeste 0 928.4 -- 23
2020-06-18 18:00:00 27.9 15 Sudoeste 43 Sudoeste 0 928.8 -- 23
2020-06-18 17:00:00 27.9 18 Sudoeste 33 Oeste 0 929.2 -- 25
2020-06-18 16:00:00 27.6 13 Sudoeste 30 Sudoeste 0 929.5 -- 26
2020-06-18 15:00:00 27 9 Oeste 27 Sudoeste 0 929.8 -- 26
2020-06-18 14:00:00 26.2 11 Sudoeste 21 Oeste 0 930.1 -- 28
2020-06-18 13:00:00 24.2 7 Noroeste 24 Sudoeste 0 930.4 -- 32
2020-06-18 12:00:00 23.6 5 Oeste 16 Oeste 0 930.5 -- 39
2020-06-18 11:00:00 22.1 6 Oeste 13 Sudoeste 0 930.6 -- 46
2020-06-18 10:00:00 19.7 4 Noroeste 11 Norte 0 930.8 -- 55
2020-06-18 09:00:00 16.9 6 Norte 10 Norte 0 930.6 -- 61
2020-06-18 08:00:00 14.6 6 Este 10 Nordeste 0 930.3 -- 68
2020-06-18 07:00:00 12.6 4 Este 7 Este 0 929.9 -- 74
2020-06-18 06:00:00 13.3 5 Este 8 Este 0 929.7 -- 71
2020-06-18 05:00:00 14.7 5 Nordeste 12 Nordeste 0 929.6 -- 67
2020-06-18 04:00:00 14.7 5 Este 13 Nordeste 0 929.8 -- 64
2020-06-18 03:00:00 16 3 Nordeste 15 Norte 0 930.3 -- 58
2020-06-18 02:00:00 17.4 4 Norte 18 Este 0 930.6 -- 53
2020-06-18 01:00:00 18.6 10 Nordeste 17 Este 0 930.7 -- 46
2020-06-18 00:00:00 19.2 9 Nordeste 17 Este 0 931 -- 45
2020-06-17 23:00:00 20.4 9 Nordeste 18 Este 0 930.8 -- 42
2020-06-17 22:00:00 22 11 Nordeste 18 Nordeste 0 930 -- 36
2020-06-17 21:00:00 23.6 5 Noroeste 17 Oeste 0 929.6 -- 28
2020-06-17 20:00:00 25.2 5 Oeste 21 Sudoeste 0 929.6 -- 25
2020-06-17 19:00:00 25.3 11 Oeste 22 Oeste 0 929.9 -- 25
2020-06-17 18:00:00 24.8 7 Noroeste 24 Sudoeste 0 930.3 -- 24
2020-06-17 17:00:00 24.6 8 Sudoeste 24 Oeste 0 930.8 -- 26
2020-06-17 16:00:00 24.4 8 Sudoeste 21 Oeste 0 931.2 -- 28
2020-06-17 15:00:00 23 6 Noroeste 15 Oeste 0 931.6 -- 28
2020-06-17 14:00:00 23.1 6 Oeste 15 Sudoeste 0 932.2 -- 30
2020-06-17 13:00:00 22.8 5 Sudoeste 17 Sudoeste 0 932.7 -- 32
2020-06-17 12:00:00 21 8 Este 17 Este 0 932.8 -- 38
2020-06-17 11:00:00 20.1 6 Nordeste 15 Nordeste 0 933 -- 41
2020-06-17 10:00:00 17.6 7 Noroeste 14 Noroeste 0 933.2 -- 56
2020-06-17 09:00:00 16.9 6 Nordeste 11 Nordeste 0 933.2 -- 59
2020-06-17 08:00:00 14.8 5 Nordeste 9 Nordeste 0 933.2 -- 66
2020-06-17 07:00:00 13.2 3 Este 7 Nordeste 0 933 -- 70
2020-06-17 06:00:00 13.8 4 Nordeste 10 Nordeste 0 932.5 -- 68
2020-06-17 05:00:00 14.2 0 Calma 7 Nordeste 0 932.5 -- 66
2020-06-17 04:00:00 15.3 3 Nordeste 8 Este 0 932.8 -- 62
2020-06-17 03:00:00 16 4 Este 11 Norte 0 933.3 -- 61
2020-06-17 02:00:00 17.6 4 Norte 16 Norte 0 933.7 -- 54
2020-06-17 01:00:00 18.4 5 Norte 13 Norte 0 934 -- 48
2020-06-17 00:00:00 18.4 3 Noroeste 11 Oeste 0 934.1 -- 51
2020-06-16 23:00:00 19.5 9 Sudoeste 15 Sudoeste 0 934 -- 48
2020-06-16 22:00:00 20.5 2 Norte 13 Norte 0 933.4 -- 44
2020-06-16 21:00:00 21.1 7 Norte 21 Norte 0 933.1 -- 41
2020-06-16 20:00:00 22.5 10 Norte 27 Norte 0 933 -- 37
2020-06-16 19:00:00 22.9 18 Noroeste 34 Norte 0 933 -- 36
2020-06-16 18:00:00 23.7 11 Noroeste 28 Noroeste 0 932.7 -- 29
2020-06-16 17:00:00 25 8 Oeste 24 Norte 0 932.9 -- 28
2020-06-16 16:00:00 23.1 8 Noroeste 19 Noroeste 0 933.7 -- 37
2020-06-16 15:00:00 22.7 7 Norte 21 Oeste 0 934.1 -- 38
2020-06-16 14:00:00 23.4 5 Noroeste 18 Noroeste 0 934.4 -- 37
2020-06-16 13:00:00 21.9 5 Sudeste 15 Noroeste 0 935.1 -- 45
2020-06-16 12:00:00 20.5 5 Oeste 15 Noroeste 0 935.4 -- 48
2020-06-16 11:00:00 18.5 5 Norte 15 Noroeste 0 935.4 -- 55
2020-06-16 10:00:00 17.4 5 Norte 12 Norte 0 935.9 -- 59
2020-06-16 09:00:00 16.7 7 Nordeste 12 Este 0 935.5 -- 62
2020-06-16 08:00:00 15.4 7 Nordeste 13 Nordeste 0 935.7 -- 71
2020-06-16 07:00:00 14.8 8 Nordeste 14 Nordeste 0 935.3 -- 72
2020-06-16 06:00:00 15.4 9 Nordeste 21 Este 0 935 -- 69
2020-06-16 05:00:00 15.8 9 Nordeste 19 Este 0 935 -- 65
2020-06-16 04:00:00 16 9 Nordeste 17 Nordeste 0 935.1 -- 66
2020-06-16 03:00:00 16.8 7 Nordeste 13 Nordeste 0 935.6 -- 66
2020-06-16 02:00:00 17.7 6 Nordeste 14 Este 0 936 -- 63
2020-06-16 01:00:00 18.3 8 Este 17 Este 0 935.9 -- 59
2020-06-16 00:00:00 19.6 2 Nordeste 12 Nordeste 0 936 -- 53
2020-06-15 23:00:00 20.9 3 Sudeste 5 Sudeste 0 935.6 -- 49
2020-06-15 22:00:00 21.2 3 Sudeste 14 Nordeste 0 935.6 -- 48
2020-06-15 21:00:00 21.8 9 Nordeste 22 Norte 0 935.3 -- 46
2020-06-15 20:00:00 23.8 8 Norte 24 Noroeste 0 935.1 -- 39
2020-06-15 19:00:00 25.4 18 Oeste 29 Sudoeste 0 934.8 -- 26
2020-06-15 18:00:00 26.5 13 Sudoeste 28 Sudoeste 0 935.1 -- 26
2020-06-15 17:00:00 26.4 9 Oeste 29 Oeste 0 935.4 -- 27
2020-06-15 16:00:00 26.6 11 Sudoeste 27 Oeste 0 935.9 -- 26
2020-06-15 15:00:00 25.9 8 Sur 27 Oeste 0 936.2 -- 29
2020-06-15 14:00:00 24.7 11 Oeste 26 Oeste 0 937 -- 32
2020-06-15 13:00:00 23.6 9 Sudoeste 24 Oeste 0 937.2 -- 35
2020-06-15 12:00:00 22.6 14 Sudoeste 29 Sudoeste 0 937.4 -- 37
2020-06-15 11:00:00 21.6 5 Noroeste 10 Noroeste 0 937.4 -- 42
2020-06-15 10:00:00 19 4 Norte 8 Noroeste 0 937.7 -- 50
2020-06-15 09:00:00 16.7 3 Noroeste 6 Oeste 0 937.7 -- 59
2020-06-15 08:00:00 15.3 3 Noroeste 8 Norte 0 937.4 -- 63
2020-06-15 07:00:00 15 5 Norte 11 Nordeste 0 937.1 -- 61
2020-06-15 06:00:00 15 6 Nordeste 15 Nordeste 0 936.6 -- 58
2020-06-15 05:00:00 14.6 0 Calma 10 Nordeste 0 936.4 -- 59
2020-06-15 04:00:00 16.2 5 Norte 13 Nordeste 0 936.5 -- 53
2020-06-15 03:00:00 16.8 8 Nordeste 15 Nordeste 0 936.7 -- 52
2020-06-15 02:00:00 17.5 10 Este 20 Este 0 936.7 -- 49
2020-06-15 01:00:00 17.8 8 Nordeste 12 Este 0 936.7 -- 50
2020-06-15 00:00:00 19.6 6 Norte 11 Norte 0 936.4 -- 42
2020-06-14 23:00:00 20.5 0 Calma 9 Este 0 935.8 -- 41
2020-06-14 22:00:00 21.3 5 Este 19 Norte 0 935.3 -- 38
2020-06-14 21:00:00 23.2 9 Norte 28 Sudoeste 0 934.9 -- 32
2020-06-14 20:00:00 24.5 11 Sudoeste 21 Oeste 0 934.5 -- 30
2020-06-14 19:00:00 25.3 8 Sudoeste 25 Oeste 0 934.1 -- 29
2020-06-14 18:00:00 25.4 12 Sudoeste 31 Sudoeste 0 934.5 -- 26
2020-06-14 17:00:00 24.7 14 Oeste 28 Sudoeste 0 934.6 -- 29
2020-06-14 16:00:00 24.6 7 Oeste 28 Oeste 0 934.8 -- 28
2020-06-14 15:00:00 23 13 Oeste 28 Oeste 0 935.5 -- 32
2020-06-14 14:00:00 22.4 15 Sudoeste 29 Oeste 0 935.9 -- 33
2020-06-14 13:00:00 21.1 9 Oeste 23 Oeste 0 936 -- 36
2020-06-14 12:00:00 21.1 6 Oeste 23 Sudoeste 0 936.2 -- 40
2020-06-14 11:00:00 20.6 6 Sur 14 Sur 0 936 -- 41
2020-06-14 10:00:00 19 8 Nordeste 18 Este 0 935.9 -- 47
2020-06-14 09:00:00 15.7 5 Noroeste 9 Noroeste 0 935.6 -- 61
2020-06-14 08:00:00 14.2 3 Norte 8 Noroeste 0 935.1 -- 63
2020-06-14 07:00:00 12.7 3 Norte 12 Nordeste 0 934.8 -- 68
2020-06-14 06:00:00 11.5 0 Calma 8 Nordeste 0 934.5 -- 69
2020-06-14 05:00:00 11.9 5 Este 13 Nordeste 0 934.3 -- 64
2020-06-14 04:00:00 12 8 Sudeste 12 Sudeste 0 934.2 -- 64
2020-06-14 03:00:00 12.2 4 Sudeste 6 Sudoeste 0 933.9 -- 63
2020-06-14 02:00:00 13.9 4 Sur 9 Sudoeste 0 934.1 -- 56
2020-06-14 01:00:00 15.4 6 Sur 16 Sudoeste 0 934.2 -- 50
2020-06-14 00:00:00 17 9 Sudoeste 17 Sudoeste 0 934.2 -- 45
2020-06-13 23:00:00 17.4 7 Sudoeste 12 Sudoeste 0 933.8 -- 45
2020-06-13 22:00:00 19.7 8 Sudoeste 17 Oeste 0 932.8 -- 37
2020-06-13 21:00:00 20.9 9 Sudoeste 29 Oeste 0 932.3 -- 32
2020-06-13 20:00:00 22.8 11 Oeste 28 Sudoeste 0 932 -- 29
2020-06-13 19:00:00 22.5 13 Sudoeste 28 Sudoeste 0 931.8 -- 29
2020-06-13 18:00:00 23 13 Oeste 28 Oeste 0 931.8 -- 29
2020-06-13 17:00:00 22.5 8 Oeste 31 Oeste 0 932 -- 30
2020-06-13 16:00:00 22.9 13 Sudoeste 26 Sudoeste 0 932 -- 30
2020-06-13 15:00:00 21.2 8 Oeste 24 Oeste 0 932.1 -- 32
2020-06-13 14:00:00 20.4 8 Noroeste 21 Oeste 0 932.3 -- 35
2020-06-13 13:00:00 20.7 9 Sudoeste 18 Sudoeste 0 932.4 -- 40
2020-06-13 12:00:00 18.1 8 Este 17 Este 0 932 -- 46
2020-06-13 11:00:00 16 8 Sudoeste 14 Sudoeste 0 931.9 -- 57
2020-06-13 10:00:00 14.4 5 Oeste 19 Sudoeste 0 931.4 -- 69
2020-06-13 09:00:00 11.9 10 Sudoeste 22 Sudoeste 0 931 -- 82
2020-06-13 08:00:00 11 9 Sudoeste 17 Sudoeste 0 930.3 -- 84
2020-06-13 07:00:00 9.5 8 Sur 12 Sudoeste 0 929.5 -- 87
2020-06-13 06:00:00 10 7 Sudoeste 17 Sudoeste 0 929.1 -- 85
2020-06-13 05:00:00 10.6 9 Sudoeste 17 Sudoeste 0 928.4 -- 84
2020-06-13 04:00:00 10.9 10 Sudoeste 17 Sudoeste 0 928.2 -- 87
2020-06-13 03:00:00 11.6 8 Sudoeste 20 Sudoeste 0 928.2 -- 84
2020-06-13 02:00:00 11.9 11 Sudoeste 20 Sudoeste 0 928.2 -- 77
2020-06-13 01:00:00 11.8 10 Sudoeste 23 Sur 0 928.1 -- 77
2020-06-13 00:00:00 11.8 12 Sudoeste 37 Sudoeste 0.4 927.6 -- 78
2020-06-12 23:00:00 14.6 8 Oeste 16 Sudoeste 0 927.2 -- 54
2020-06-12 22:00:00 14.7 8 Noroeste 22 Noroeste 0 926 -- 55
2020-06-12 21:00:00 16.4 10 Noroeste 38 Oeste 0 925.2 -- 49
2020-06-12 20:00:00 18.3 15 Oeste 39 Oeste 0 924.1 -- 40
2020-06-12 19:00:00 18.4 15 Oeste 37 Oeste 0 923.5 -- 43
2020-06-12 18:00:00 18.8 13 Oeste 40 Oeste 0 923.6 -- 43
2020-06-12 17:00:00 17.8 18 Sudoeste 40 Sudoeste 0 923.3 -- 41
2020-06-12 16:00:00 18.1 18 Oeste 41 Sudoeste 0 923.3 -- 39
2020-06-12 15:00:00 19.1 24 Sudoeste 43 Sudoeste 0 923.3 -- 38
2020-06-12 14:00:00 17.8 18 Sudoeste 40 Sudoeste 0 923.5 -- 42
2020-06-12 13:00:00 16.6 19 Sudoeste 38 Sudoeste 0 923.7 -- 45
2020-06-12 12:00:00 16.2 20 Sudoeste 40 Sudoeste 0 923.6 -- 47
2020-06-12 11:00:00 14.7 20 Sudoeste 41 Sudoeste 0 923.6 -- 50
2020-06-12 10:00:00 13.1 19 Sudoeste 33 Sudoeste 0 923.6 -- 55
2020-06-12 09:00:00 11.6 19 Sudoeste 32 Sudoeste 0 923.4 -- 62
2020-06-12 08:00:00 10.6 18 Sudoeste 30 Sudoeste 0 923 -- 65
2020-06-12 07:00:00 10 15 Sudoeste 26 Sudoeste 0 922.7 -- 69
2020-06-12 06:00:00 11 13 Oeste 25 Sudoeste 0 922.5 -- 58
2020-06-12 05:00:00 12.2 12 Oeste 32 Oeste 0 922.2 -- 54
2020-06-12 04:00:00 12.7 13 Sudoeste 28 Oeste 0 922.2 -- 54
2020-06-12 03:00:00 13.4 16 Oeste 29 Sudoeste 0 922.3 -- 53
2020-06-12 02:00:00 14.4 7 Oeste 30 Oeste 0 922.4 -- 58
2020-06-12 01:00:00 15.5 17 Sudoeste 32 Sudoeste 0 922.1 -- 53
2020-06-12 00:00:00 16.5 16 Oeste 34 Oeste 0 922.1 -- 64